Airport ID:KMHV
Update Time (UTC):29/05/2024 16:13
Wind Speed (Knots):11
Wind Direction (Magnetic):270
Temperature (°C):25
Dew Point (°C):4
Humidity (%):25
Altimeter (inHg):30
Density Altitude (Feet):4600
Visibility:10+
Clouds (Hundreds of feet):CLR
Present Weather:
METAR:METAR KMHV 291600Z AUTO 28009G20KT 10SM CLR 25/04 A3001 RMK AO2

The data displayed is for advisory purposes only and is not to be used for flight planning or operations.